Time;durP1;ratioP1;P1;durP2;ratioP2;P2;SDS_P1;SDS_P2;PMS_P1;PMS_P2;Temp;Humidity;BMP_temperature;BMP_pressure;BME280_temperature;BME280_humidity;BME280_pressure;Samples;Min_cycle;Max_cycle;Signal;HPM_P1;HPM_P2
2021/05/27 00:02:08;;;;;;;16.75;3.10;;;9.60;99.90;;;;;;5100813;28;20072;-82
2021/05/27 00:04:36;;;;;;;9.90;2.47;;;9.60;99.90;;;;;;5108411;28;20063;-82
2021/05/27 00:07:11;;;;;;;16.27;3.22;;;9.60;99.90;;;;;;5086996;28;20036;-82
2021/05/27 00:09:42;;;;;;;15.80;2.58;;;9.60;99.90;;;;;;5090278;28;20510;-82
2021/05/27 00:12:23;;;;;;;9.57;2.47;;;9.60;99.90;;;;;;5086913;28;20043;-82
2021/05/27 00:14:50;;;;;;;17.52;3.40;;;9.60;99.90;;;;;;5071886;28;20052;-82
2021/05/27 00:17:19;;;;;;;15.68;3.22;;;9.60;99.90;;;;;;5087524;28;20048;-82
2021/05/27 00:20:21;;;;;;;14.55;3.75;;;9.60;99.90;;;;;;5090789;28;20044;-83
2021/05/27 00:22:59;;;;;;;14.18;3.10;;;9.60;99.90;;;;;;5072867;28;20495;-81
2021/05/27 00:25:25;;;;;;;17.58;4.82;;;9.60;99.90;;;;;;5109073;28;20044;-82
2021/05/27 00:27:52;;;;;;;14.43;2.63;;;9.60;99.90;;;;;;5091584;28;20047;-81
2021/05/27 00:30:20;;;;;;;23.92;3.30;;;9.60;99.90;;;;;;5044743;28;20073;-82
2021/05/27 00:32:49;;;;;;;13.07;3.45;;;9.60;99.90;;;;;;5091104;28;20059;-82
2021/05/27 00:35:15;;;;;;;12.93;2.47;;;9.60;99.90;;;;;;5103957;28;20479;-83
2021/05/27 00:37:43;;;;;;;18.00;2.25;;;9.60;99.90;;;;;;5091110;28;20043;-82
2021/05/27 00:40:15;;;;;;;7.63;2.45;;;9.60;99.90;;;;;;5071571;28;20480;-82
2021/05/27 00:42:41;;;;;;;16.95;2.90;;;9.60;99.90;;;;;;5070791;28;20054;-82
2021/05/27 00:45:12;;;;;;;14.80;2.20;;;9.60;99.90;;;;;;5087881;28;20044;-82
2021/05/27 00:47:44;;;;;;;12.95;2.95;;;9.50;99.90;;;;;;5105814;28;20059;-82
2021/05/27 00:50:21;;;;;;;12.20;2.35;;;9.50;99.90;;;;;;5109344;28;20528;-83
2021/05/27 00:53:01;;;;;;;6.30;1.88;;;9.50;99.90;;;;;;5071385;28;20050;-82
2021/05/27 00:55:29;;;;;;;11.52;2.60;;;9.50;99.90;;;;;;5090142;28;20035;-82
2021/05/27 00:57:59;;;;;;;15.15;3.58;;;9.50;99.90;;;;;;5106515;28;20111;-82
2021/05/27 01:00:44;;;;;;;17.88;2.90;;;9.50;99.90;;;;;;5106232;28;20068;-82
2021/05/27 01:03:11;;;;;;;14.32;2.92;;;9.40;99.90;;;;;;5083480;28;20112;-82
2021/05/27 01:05:55;;;;;;;15.35;3.05;;;9.40;99.90;;;;;;5090310;28;20315;-83
2021/05/27 01:08:30;;;;;;;10.75;2.20;;;9.40;99.90;;;;;;5076105;28;20063;-82
2021/05/27 01:10:58;;;;;;;8.65;2.35;;;9.40;99.90;;;;;;5090643;28;20059;-84
2021/05/27 01:13:27;;;;;;;13.00;2.90;;;9.50;99.90;;;;;;5068275;28;20509;-82
2021/05/27 01:15:53;;;;;;;17.65;4.97;;;9.40;99.90;;;;;;5060240;28;20076;-82
2021/05/27 01:18:35;;;;;;;10.10;2.33;;;9.50;99.90;;;;;;5089484;28;20059;-82
2021/05/27 01:21:01;;;;;;;6.03;1.35;;;9.50;99.90;;;;;;5077811;28;20092;-82
2021/05/27 01:23:27;;;;;;;11.10;1.88;;;9.40;99.90;;;;;;5098775;28;20051;-82
2021/05/27 01:25:58;;;;;;;10.75;2.25;;;9.40;99.90;;;;;;5043326;28;20407;-81
2021/05/27 01:28:41;;;;;;;7.07;1.95;;;9.50;99.90;;;;;;5027888;28;20053;-81
2021/05/27 01:31:09;;;;;;;14.77;2.47;;;9.50;99.90;;;;;;5027885;28;20060;-81
2021/05/27 01:33:37;;;;;;;11.00;2.78;;;9.50;99.90;;;;;;5014740;28;20049;-81
2021/05/27 01:40:41;;;;;;;8.77;1.95;;;9.50;99.90;;;;;;5010128;28;20053;-82
2021/05/27 01:43:50;;;;;;;16.20;3.42;;;9.50;99.90;;;;;;4987878;28;20049;-81
2021/05/27 01:46:50;;;;;;;10.15;2.35;;;9.50;99.90;;;;;;4989736;28;20049;-82
2021/05/27 01:49:58;;;;;;;14.48;2.47;;;9.50;99.90;;;;;;4911442;29;20163;-82
2021/05/27 01:52:24;;;;;;;18.00;3.80;;;9.60;99.90;;;;;;4892697;29;20072;-84
2021/05/27 01:54:50;;;;;;;13.00;2.97;;;9.60;99.90;;;;;;4893001;29;20061;-82
2021/05/27 01:57:17;;;;;;;20.15;2.33;;;9.60;99.90;;;;;;4893315;29;20147;-81
2021/05/27 01:59:43;;;;;;;17.35;3.25;;;9.60;99.90;;;;;;4888461;29;20292;-82
2021/05/27 02:02:18;;;;;;;15.35;2.90;;;9.70;99.90;;;;;;4949554;28;20101;-82
2021/05/27 02:04:57;;;;;;;22.52;3.22;;;9.70;99.90;;;;;;4949143;29;20236;-82
2021/05/27 02:07:27;;;;;;;21.35;3.33;;;9.70;99.90;;;;;;4946340;28;20066;-83
2021/05/27 02:09:54;;;;;;;22.23;3.88;;;9.80;99.90;;;;;;4939992;28;20138;-82
2021/05/27 02:12:28;;;;;;;21.95;5.03;;;9.80;99.90;;;;;;4949103;29;20071;-82
2021/05/27 02:15:20;;;;;;;24.45;6.15;;;9.80;99.90;;;;;;4932938;29;20055;-81
2021/05/27 02:17:47;;;;;;;20.30;4.13;;;9.80;99.90;;;;;;4947114;29;20563;-82
2021/05/27 02:20:32;;;;;;;18.67;5.28;;;9.80;99.90;;;;;;4975917;28;20055;-82
2021/05/27 02:22:58;;;;;;;22.98;4.90;;;9.90;99.90;;;;;;5036119;28;20053;-81
2021/05/27 02:25:25;;;;;;;15.02;4.28;;;9.90;99.90;;;;;;5030313;28;20115;-83
2021/05/27 02:28:03;;;;;;;15.27;3.20;;;9.90;99.90;;;;;;5068857;28;20048;-82
2021/05/27 02:30:30;;;;;;;16.75;3.60;;;9.90;99.90;;;;;;5056895;28;20036;-84
2021/05/27 02:32:57;;;;;;;12.90;3.25;;;9.90;99.90;;;;;;5069046;28;20042;-82
2021/05/27 02:35:43;;;;;;;21.02;6.82;;;9.90;99.90;;;;;;5081039;28;20038;-82
2021/05/27 02:38:12;;;;;;;18.95;5.65;;;10.00;99.90;;;;;;5053188;28;20488;-81
2021/05/27 02:40:39;;;;;;;18.27;4.07;;;10.00;99.90;;;;;;5083644;28;20058;-81
2021/05/27 02:43:06;;;;;;;25.45;4.10;;;10.00;99.90;;;;;;5069141;28;20036;-82
2021/05/27 02:45:33;;;;;;;27.23;5.35;;;10.00;99.90;;;;;;5059380;28;20131;-81
2021/05/27 02:48:05;;;;;;;16.05;3.58;;;10.00;99.90;;;;;;5073308;28;20051;-82
2021/05/27 02:50:31;;;;;;;23.48;4.45;;;10.00;99.90;;;;;;5062114;28;20476;-83
2021/05/27 02:52:57;;;;;;;20.98;4.28;;;10.00;99.90;;;;;;5071767;28;20051;-81
2021/05/27 02:55:24;;;;;;;19.98;3.05;;;10.10;99.90;;;;;;5071575;28;20376;-81
2021/05/27 02:58:00;;;;;;;21.30;3.30;;;10.10;99.90;;;;;;5058280;28;20043;-81
2021/05/27 03:00:26;;;;;;;19.30;4.20;;;10.10;99.90;;;;;;5055182;28;20138;-82
2021/05/27 03:02:52;;;;;;;24.45;4.88;;;10.00;99.90;;;;;;5070104;28;20048;-82
2021/05/27 03:05:18;;;;;;;21.88;4.72;;;10.10;99.90;;;;;;5052440;28;20454;-81
2021/05/27 03:07:44;;;;;;;13.88;2.72;;;10.10;99.90;;;;;;5071066;28;20066;-82
2021/05/27 03:10:12;;;;;;;26.83;2.83;;;10.10;99.90;;;;;;5053586;28;20051;-81
2021/05/27 03:12:49;;;;;;;17.08;4.18;;;10.10;99.90;;;;;;5068431;28;20068;-81
2021/05/27 03:15:15;;;;;;;22.30;3.08;;;10.10;99.90;;;;;;5080619;28;20406;-81
2021/05/27 03:17:42;;;;;;;17.08;2.90;;;10.00;99.90;;;;;;5084786;28;20040;-81
2021/05/27 03:20:19;;;;;;;14.35;3.70;;;10.00;99.90;;;;;;5063608;28;20055;-82
2021/05/27 03:22:46;;;;;;;14.60;2.72;;;10.00;99.90;;;;;;5070459;28;20044;-81
2021/05/27 03:25:15;;;;;;;10.55;2.60;;;10.00;99.90;;;;;;5061811;28;20395;-82
2021/05/27 03:27:40;;;;;;;9.43;2.25;;;10.00;99.90;;;;;;5068787;28;20043;-82
2021/05/27 03:30:07;;;;;;;8.55;1.95;;;9.90;99.90;;;;;;5068236;28;20203;-82
2021/05/27 03:32:40;;;;;;;18.27;2.58;;;9.90;99.90;;;;;;5049837;28;20127;-83
2021/05/27 03:35:08;;;;;;;12.38;2.58;;;9.90;99.90;;;;;;5074187;28;20036;-82
2021/05/27 03:37:34;;;;;;;19.17;3.63;;;9.90;99.90;;;;;;5089188;28;20043;-84
2021/05/27 03:42:54;;;;;;;18.83;2.78;;;9.80;99.90;;;;;;5081279;28;20055;-82
2021/05/27 03:45:27;;;;;;;23.67;3.28;;;9.80;99.90;;;;;;5074186;28;20451;-82
2021/05/27 03:47:59;;;;;;;10.75;2.92;;;9.80;99.90;;;;;;5096935;28;20407;-82
2021/05/27 03:50:33;;;;;;;13.15;3.00;;;9.80;99.90;;;;;;5070700;28;20075;-83
2021/05/27 03:53:00;;;;;;;23.77;5.18;;;9.80;99.90;;;;;;5070420;28;20047;-82
2021/05/27 03:55:28;;;;;;;28.92;6.70;;;9.70;99.90;;;;;;5106113;28;20487;-83
2021/05/27 03:57:59;;;;;;;13.13;3.80;;;9.60;99.90;;;;;;5074102;28;20836;-83
2021/05/27 04:00:45;;;;;;;18.35;4.47;;;9.60;99.90;;;;;;5081802;28;20048;-83
2021/05/27 04:03:26;;;;;;;10.50;2.45;;;9.50;99.90;;;;;;5088884;28;20063;-83
2021/05/27 04:09:05;;;;;;;13.20;1.40;;;9.40;99.90;;;;;;5091387;28;20051;-84
2021/05/27 04:11:45;;;;;;;;;;;9.20;99.90;;;;;;5078217;28;20048;-84
2021/05/27 04:14:11;;;;;;;10.63;1.25;;;9.10;99.90;;;;;;5059624;28;20050;-84
2021/05/27 04:16:37;;;;;;;27.25;2.28;;;9.00;99.90;;;;;;5073014;28;20048;-88
2021/05/27 04:19:03;;;;;;;7.18;1.35;;;8.90;99.90;;;;;;5075968;28;20048;-84
2021/05/27 04:21:29;;;;;;;22.15;1.40;;;8.90;99.90;;;;;;5078190;28;20036;-86
2021/05/27 04:23:55;;;;;;;11.63;1.42;;;9.00;99.90;;;;;;5057245;28;20541;-86
2021/05/27 04:26:31;;;;;;;9.70;1.45;;;8.90;99.90;;;;;;5077594;28;20058;-84
2021/05/27 04:29:14;;;;;;;8.40;1.63;;;9.00;99.90;;;;;;5065693;28;20060;-85
2021/05/27 04:31:41;;;;;;;8.23;1.60;;;9.00;99.90;;;;;;5070436;28;20063;-87
2021/05/27 04:34:13;;;;;;;9.50;1.20;;;9.10;99.90;;;;;;5074492;28;20044;-84
2021/05/27 04:36:42;;;;;;;3.28;0.90;;;9.20;99.90;;;;;;5080792;28;20089;-89
2021/05/27 04:42:34;;;;;;;4.68;0.90;;;9.30;99.90;;;;;;5010987;28;20088;-85
2021/05/27 04:45:24;;;;;;;6.78;1.58;;;9.40;99.90;;;;;;4933885;28;20053;-85
2021/05/27 04:47:58;;;;;;;17.73;4.90;;;9.40;99.90;;;;;;5046555;28;20093;-85
2021/05/27 04:50:49;;;;;;;10.73;2.53;;;9.60;99.90;;;;;;5021400;28;20105;-85
2021/05/27 04:53:40;;;;;;;14.73;1.95;;;9.60;99.90;;;;;;5053356;28;20583;-88
2021/05/27 04:56:36;;;;;;;18.05;2.60;;;9.60;99.90;;;;;;5054565;28;20044;-86
2021/05/27 04:59:39;;;;;;;13.00;1.85;;;9.70;99.90;;;;;;5038738;28;20058;-86
2021/05/27 05:02:21;;;;;;;11.32;1.52;;;9.80;99.90;;;;;;5037138;28;20438;-86
2021/05/27 05:05:11;;;;;;;13.27;1.65;;;9.90;99.90;;;;;;5052459;28;20057;-86
2021/05/27 05:08:06;;;;;;;16.05;2.42;;;9.90;99.90;;;;;;4991622;28;20607;-86
2021/05/27 05:10:51;;;;;;;18.40;2.08;;;9.90;99.90;;;;;;5051477;28;20059;-91
2021/05/27 05:14:13;;;;;;;14.80;2.92;;;10.00;99.90;;;;;;5012281;28;20052;-88
2021/05/27 05:18:04;;;;;;;16.85;2.67;;;10.00;99.90;;;;;;4985843;28;20130;-88
2021/05/27 05:24:29;;;;;;;;;;;10.20;99.90;;;;;;5010674;28;20080;-87
2021/05/27 05:45:25;;;;;;;12.27;2.50;;;10.50;99.90;;;;;;5045825;28;20047;-85
2021/05/27 06:00:46;;;;;;;10.07;1.73;;;10.50;99.90;;;;;;4905128;29;20055;-83
2021/05/27 06:03:40;;;;;;;;;;;10.60;99.90;;;;;;4962378;28;20143;-83
2021/05/27 06:39:42;;;;;;;8.75;1.45;;;10.70;99.90;;;;;;5007141;28;20406;-84
2021/05/27 06:47:09;;;;;;;14.88;2.85;;;10.80;99.90;;;;;;5027143;28;20444;-85
2021/05/27 07:06:29;;;;;;;13.55;2.00;;;11.00;99.90;;;;;;4830374;29;20120;-83
2021/05/27 07:16:58;;;;;;;12.02;2.10;;;11.10;99.90;;;;;;4869113;29;19951;-83
2021/05/27 07:30:47;;;;;;;18.25;2.42;;;11.50;99.90;;;;;;4849124;29;20057;-83
2021/05/27 07:33:42;;;;;;;16.15;1.98;;;11.50;99.90;;;;;;4835462;29;20060;-82
2021/05/27 07:36:38;;;;;;;13.50;1.95;;;11.70;99.90;;;;;;4834301;29;20498;-81
2021/05/27 07:39:33;;;;;;;13.85;1.88;;;11.80;99.90;;;;;;4913563;28;20046;-82
2021/05/27 07:42:07;;;;;;;13.95;2.30;;;11.90;99.90;;;;;;4933240;29;20056;-81
2021/05/27 07:44:57;;;;;;;8.60;1.73;;;12.20;99.90;;;;;;4942861;28;20143;-83
2021/05/27 07:47:55;;;;;;;12.38;2.20;;;12.20;99.90;;;;;;4898273;29;20047;-83
2021/05/27 07:54:48;;;;;;;16.23;2.85;;;12.40;99.90;;;;;;4924481;28;20136;-84
2021/05/27 07:57:56;;;;;;;12.18;2.35;;;12.40;99.90;;;;;;4882894;29;20097;-83
2021/05/27 08:00:31;;;;;;;18.25;3.10;;;12.50;99.90;;;;;;4936973;28;20179;-83
2021/05/27 08:03:22;;;;;;;20.00;3.33;;;12.60;99.90;;;;;;4985924;28;20513;-83
2021/05/27 08:06:37;;;;;;;21.27;2.80;;;12.60;99.90;;;;;;4991538;28;20074;-83
2021/05/27 08:12:50;;;;;;;8.15;2.35;;;12.60;99.90;;;;;;5014370;28;20549;-83
2021/05/27 08:16:10;;;;;;;18.73;2.47;;;12.60;99.90;;;;;;5049448;28;20104;-83
2021/05/27 08:19:11;;;;;;;15.70;2.25;;;12.70;99.90;;;;;;5022355;28;20061;-83
2021/05/27 08:21:46;;;;;;;13.13;2.08;;;12.80;99.90;;;;;;5048543;28;20056;-82
2021/05/27 08:24:17;;;;;;;25.25;3.40;;;12.80;99.90;;;;;;5027228;28;20570;-84
2021/05/27 08:27:41;;;;;;;14.43;2.50;;;12.90;99.90;;;;;;5028517;28;20052;-84
2021/05/27 08:30:10;;;;;;;16.33;2.63;;;12.90;99.90;;;;;;4979709;28;20053;-82
2021/05/27 08:32:43;;;;;;;8.68;1.75;;;13.00;99.90;;;;;;5014071;28;20050;-81
2021/05/27 08:36:19;;;;;;;18.90;3.50;;;13.10;99.90;;;;;;5012244;28;20065;-83
2021/05/27 08:39:21;;;;;;;16.08;3.08;;;13.10;99.90;;;;;;4949984;29;20043;-84
2021/05/27 08:42:06;;;;;;;15.77;2.60;;;13.10;99.90;;;;;;4929020;29;20645;-82
2021/05/27 08:45:22;;;;;;;26.45;3.08;;;13.20;99.90;;;;;;4950616;29;20066;-85
2021/05/27 08:48:01;;;;;;;14.70;2.67;;;13.10;99.90;;;;;;4956877;28;20134;-83
2021/05/27 08:51:14;;;;;;;14.60;3.15;;;13.20;99.90;;;;;;4933525;29;20117;-83
2021/05/27 08:54:23;;;;;;;11.55;2.30;;;13.20;99.90;;;;;;4923380;29;20098;-82
2021/05/27 09:00:35;;;;;;;10.15;1.75;;;13.20;99.90;;;;;;4926976;29;20055;-83
2021/05/27 09:03:55;;;;;;;10.73;1.73;;;13.20;99.90;;;;;;4930017;29;20052;-83
2021/05/27 09:07:06;;;;;;;23.77;4.43;;;13.20;99.90;;;;;;4903452;29;20059;-83
2021/05/27 09:10:18;;;;;;;8.70;1.60;;;13.00;99.90;;;;;;4849403;29;20054;-82
2021/05/27 09:13:08;;;;;;;10.68;2.45;;;13.10;99.90;;;;;;4921138;29;20159;-85
2021/05/27 09:16:17;;;;;;;8.65;1.73;;;13.20;99.90;;;;;;4953594;28;20867;-82
2021/05/27 09:19:36;;;;;;;12.75;2.17;;;13.10;99.90;;;;;;4949958;28;20067;-82
2021/05/27 09:22:45;;;;;;;10.57;2.00;;;13.30;99.90;;;;;;4924490;28;20055;-82
2021/05/27 09:29:36;;;;;;;18.05;4.05;;;13.20;99.90;;;;;;4939348;29;20110;-82
2021/05/27 09:36:42;;;;;;;23.83;3.72;;;12.30;99.90;;;;;;4874800;29;20068;-83
2021/05/27 09:43:45;;;;;;;;;;;11.60;99.90;;;;;;4897630;29;20078;-82
2021/05/27 10:06:02;;;;;;;;;;;12.30;99.90;;;;;;4879696;29;20416;-83
2021/05/27 10:19:33;;;;;;;;;;;12.60;99.90;;;;;;4889507;29;20040;-83
2021/05/27 10:22:12;;;;;;;22.83;3.30;;;12.60;99.90;;;;;;4893015;29;20400;-84
2021/05/27 10:24:38;;;;;;;21.35;2.70;;;12.80;99.90;;;;;;4876940;29;20099;-84
2021/05/27 10:27:05;;;;;;;16.02;3.58;;;12.80;99.90;;;;;;4904597;29;20483;-84
2021/05/27 10:29:32;;;;;;;19.58;3.20;;;13.00;99.90;;;;;;4929550;29;20062;-83
2021/05/27 10:32:01;;;;;;;11.75;2.30;;;13.10;99.90;;;;;;4911463;29;20083;-83
2021/05/27 10:34:55;;;;;;;14.10;2.88;;;13.20;99.90;;;;;;4926278;29;20115;-84
2021/05/27 10:37:58;;;;;;;17.63;4.20;;;13.20;99.90;;;;;;4930419;29;20142;-83
2021/05/27 10:40:30;;;;;;;11.88;2.08;;;13.30;99.90;;;;;;4919070;29;20571;-85
2021/05/27 10:43:09;;;;;;;30.10;3.42;;;13.30;99.90;;;;;;4930148;29;20071;-83
2021/05/27 10:46:03;;;;;;;20.90;3.33;;;13.30;99.90;;;;;;4929076;29;20051;-83
2021/05/27 10:48:45;;;;;;;16.05;2.22;;;13.30;99.90;;;;;;4928865;29;20126;-84
2021/05/27 10:54:06;;;;;;;14.15;2.05;;;13.20;99.90;;;;;;4930098;29;20527;-84
2021/05/27 10:56:37;;;;;;;13.90;2.05;;;13.20;99.90;;;;;;4912463;29;20063;-84
2021/05/27 10:59:31;;;;;;;17.92;2.60;;;13.10;99.90;;;;;;4993671;28;20085;-83
2021/05/27 11:02:19;;;;;;;23.30;3.08;;;13.00;99.90;;;;;;5052052;28;20045;-84
2021/05/27 11:08:20;;;;;;;10.82;2.42;;;13.10;99.90;;;;;;5036606;28;20060;-84
2021/05/27 11:11:46;;;;;;;13.05;2.20;;;13.10;99.90;;;;;;4993461;28;20147;-83
2021/05/27 11:14:27;;;;;;;14.73;2.15;;;13.10;99.90;;;;;;5069376;28;20067;-83
2021/05/27 11:17:22;;;;;;;12.68;2.10;;;13.00;99.90;;;;;;5075157;28;20415;-83
2021/05/27 11:23:22;;;;;;;17.85;3.08;;;12.90;99.90;;;;;;5089039;28;20123;-82
2021/05/27 11:25:51;;;;;;;19.80;2.78;;;12.90;99.90;;;;;;5073621;28;20064;-82
2021/05/27 11:28:24;;;;;;;16.65;2.30;;;13.00;99.90;;;;;;5039762;28;20055;-82
2021/05/27 11:30:54;;;;;;;19.45;2.85;;;13.10;99.90;;;;;;5051035;28;20068;-82
2021/05/27 11:33:40;;;;;;;10.50;2.67;;;13.10;99.90;;;;;;5080591;28;20044;-82
2021/05/27 11:36:12;;;;;;;15.55;2.72;;;13.10;99.90;;;;;;5052220;28;20087;-82
2021/05/27 11:39:16;;;;;;;11.10;1.98;;;13.10;99.90;;;;;;5067035;28;20044;-83
2021/05/27 11:42:09;;;;;;;15.57;1.83;;;13.00;99.90;;;;;;5071745;28;20044;-83
2021/05/27 11:45:06;;;;;;;11.25;1.70;;;13.00;99.90;;;;;;5048448;28;20059;-83
2021/05/27 11:47:53;;;;;;;12.73;1.88;;;13.10;99.90;;;;;;5035435;28;20122;-84
2021/05/27 11:50:20;;;;;;;11.13;1.92;;;13.10;99.90;;;;;;5006871;28;20050;-82
2021/05/27 11:52:57;;;;;;;10.88;2.00;;;13.10;99.90;;;;;;5004538;28;20049;-83
2021/05/27 11:55:30;;;;;;;12.10;2.20;;;13.10;99.90;;;;;;4998930;28;20068;-82
2021/05/27 11:58:05;;;;;;;17.40;2.40;;;13.20;99.90;;;;;;5009151;28;20052;-84
2021/05/27 12:00:37;;;;;;;20.67;3.25;;;13.30;99.90;;;;;;5035912;28;20501;-83
2021/05/27 12:03:10;;;;;;;22.80;2.70;;;13.40;99.90;;;;;;5040615;28;20048;-83
2021/05/27 12:05:58;;;;;;;22.85;3.15;;;13.30;99.90;;;;;;5035140;28;20418;-81
2021/05/27 12:08:25;;;;;;;11.32;2.25;;;13.50;99.90;;;;;;5039706;28;20413;-82
2021/05/27 12:11:06;;;;;;;15.47;2.20;;;13.70;99.90;;;;;;4960883;28;20049;-82
2021/05/27 12:13:38;;;;;;;16.77;2.47;;;13.90;99.90;;;;;;5046140;28;20049;-82
2021/05/27 12:16:06;;;;;;;13.93;2.78;;;14.00;99.90;;;;;;5063640;28;20045;-82
2021/05/27 12:18:33;;;;;;;19.10;3.00;;;14.10;99.90;;;;;;5065204;28;20045;-82
2021/05/27 12:21:09;;;;;;;27.63;2.92;;;13.90;99.90;;;;;;5029375;28;20222;-82
2021/05/27 12:23:54;;;;;;;10.77;2.03;;;13.80;99.90;;;;;;5013168;28;20062;-82
2021/05/27 12:26:48;;;;;;;19.98;2.97;;;13.60;99.90;;;;;;4979674;28;20050;-82
2021/05/27 12:29:18;;;;;;;22.23;3.28;;;13.50;99.90;;;;;;4981268;28;20148;-83
2021/05/27 12:31:55;;;;;;;18.25;3.50;;;13.30;99.90;;;;;;4987257;28;20151;-82
2021/05/27 12:34:31;;;;;;;15.20;3.17;;;13.20;99.90;;;;;;4974595;28;20115;-82
2021/05/27 12:37:14;;;;;;;19.85;2.35;;;13.30;99.90;;;;;;5005127;28;20619;-83
2021/05/27 12:39:42;;;;;;;10.07;2.22;;;13.30;99.90;;;;;;4940877;28;20141;-83
2021/05/27 12:42:10;;;;;;;13.52;2.60;;;13.30;99.90;;;;;;4931508;29;20440;-83
2021/05/27 12:44:44;;;;;;;14.82;2.63;;;13.30;99.90;;;;;;4945911;29;20058;-82
2021/05/27 12:47:28;;;;;;;10.52;2.53;;;13.30;99.90;;;;;;4972277;28;20134;-82
2021/05/27 12:50:25;;;;;;;18.35;5.00;;;13.30;99.90;;;;;;4982563;28;20407;-82
2021/05/27 12:52:53;;;;;;;9.52;2.25;;;13.50;99.90;;;;;;4967958;28;20046;-82
2021/05/27 12:55:29;;;;;;;8.75;1.80;;;13.50;99.90;;;;;;4955979;28;20138;-82
2021/05/27 12:58:07;;;;;;;20.00;3.22;;;13.50;99.90;;;;;;4987214;28;20065;-82
2021/05/27 13:00:58;;;;;;;16.15;2.00;;;13.50;99.90;;;;;;5014042;28;20096;-83
2021/05/27 13:03:28;;;;;;;20.17;3.00;;;13.30;99.90;;;;;;5030471;28;20068;-82
2021/05/27 13:06:09;;;;;;;20.08;3.50;;;13.20;99.90;;;;;;5031823;28;20497;-82
2021/05/27 13:08:39;;;;;;;12.55;2.25;;;13.60;99.90;;;;;;5063276;28;20052;-83
2021/05/27 13:11:27;;;;;;;22.48;3.40;;;14.20;99.90;;;;;;5087179;28;20202;-82
2021/05/27 13:13:55;;;;;;;11.57;2.35;;;14.20;99.90;;;;;;5086998;28;20407;-83
2021/05/27 13:16:54;;;;;;;18.35;3.03;;;14.00;99.90;;;;;;5077789;28;20123;-82
2021/05/27 13:19:30;;;;;;;16.90;2.58;;;13.80;99.90;;;;;;5066842;28;20079;-82
2021/05/27 13:22:07;;;;;;;13.68;2.63;;;13.70;99.90;;;;;;5098517;28;20930;-82
2021/05/27 13:24:40;;;;;;;25.48;3.67;;;13.90;99.90;;;;;;5073857;28;20047;-82
2021/05/27 13:27:35;;;;;;;16.33;2.70;;;14.10;99.90;;;;;;5090317;28;20036;-83
2021/05/27 13:30:05;;;;;;;12.60;2.17;;;14.00;99.90;;;;;;5076164;28;20063;-83
2021/05/27 13:32:40;;;;;;;19.52;2.90;;;14.00;99.90;;;;;;5089189;28;20472;-82
2021/05/27 13:35:42;;;;;;;23.30;3.30;;;13.90;99.90;;;;;;5060381;28;20040;-82
2021/05/27 13:38:28;;;;;;;16.95;3.63;;;14.00;99.90;;;;;;5090084;28;20548;-82
2021/05/27 13:41:07;;;;;;;12.15;2.65;;;14.10;99.90;;;;;;5089198;28;20068;-82
2021/05/27 13:43:35;;;;;;;21.10;3.15;;;14.10;99.90;;;;;;5077508;28;20051;-82
2021/05/27 13:46:08;;;;;;;21.52;2.70;;;14.10;99.90;;;;;;5035049;28;20053;-82
2021/05/27 13:48:47;;;;;;;12.85;1.75;;;14.10;99.90;;;;;;5055311;28;20072;-82
2021/05/27 13:51:13;;;;;;;17.80;3.25;;;14.10;99.90;;;;;;5035720;28;20048;-82
2021/05/27 13:53:40;;;;;;;18.00;2.80;;;14.10;99.90;;;;;;5090403;28;20037;-81
2021/05/27 13:56:08;;;;;;;7.18;1.42;;;14.20;99.90;;;;;;5055370;28;20565;-81
2021/05/27 13:58:34;;;;;;;17.33;3.38;;;14.40;99.90;;;;;;5077129;28;20040;-81
2021/05/27 14:01:01;;;;;;;14.95;2.45;;;14.50;99.90;;;;;;5089707;28;20046;-81
2021/05/27 14:03:32;;;;;;;19.42;3.30;;;14.60;99.90;;;;;;5066272;28;20047;-81
2021/05/27 14:06:01;;;;;;;17.27;2.90;;;14.40;99.90;;;;;;5082904;28;20051;-82
2021/05/27 14:08:28;;;;;;;18.83;2.55;;;14.50;99.90;;;;;;5103060;28;20080;-82
2021/05/27 14:11:15;;;;;;;10.85;1.90;;;14.50;99.90;;;;;;5071176;28;20178;-82
2021/05/27 14:13:44;;;;;;;20.70;2.97;;;14.50;99.90;;;;;;5064936;28;20122;-82
2021/05/27 14:16:10;;;;;;;14.38;3.05;;;14.40;99.90;;;;;;5056229;28;20043;-82
2021/05/27 14:18:36;;;;;;;20.08;3.30;;;14.50;99.90;;;;;;5079099;28;20054;-82
2021/05/27 14:21:04;;;;;;;26.95;3.00;;;14.70;99.90;;;;;;5072244;28;20059;-82
2021/05/27 14:23:30;;;;;;;18.25;3.22;;;14.70;99.90;;;;;;5064898;28;20051;-82
2021/05/27 14:26:01;;;;;;;29.40;3.88;;;14.80;99.90;;;;;;5061356;28;20476;-83
2021/05/27 14:28:36;;;;;;;21.13;3.60;;;14.90;99.90;;;;;;5101072;28;20467;-82
2021/05/27 14:31:06;;;;;;;20.25;2.88;;;15.20;99.90;;;;;;5071596;28;20054;-82
2021/05/27 14:33:35;;;;;;;15.45;3.03;;;15.10;99.90;;;;;;5090151;28;20040;-82
2021/05/27 14:36:02;;;;;;;37.28;5.05;;;15.10;99.90;;;;;;5071027;28;20093;-82
2021/05/27 14:38:34;;;;;;;12.27;2.25;;;15.10;99.90;;;;;;5070522;28;20547;-82
2021/05/27 14:41:00;;;;;;;24.42;2.72;;;15.10;99.90;;;;;;5072365;28;20781;-83
2021/05/27 14:43:29;;;;;;;10.95;2.55;;;15.50;99.90;;;;;;5075085;28;20040;-83
2021/05/27 14:45:56;;;;;;;20.38;3.20;;;15.70;99.90;;;;;;5070782;28;20661;-82
2021/05/27 14:48:23;;;;;;;21.27;4.43;;;15.50;99.90;;;;;;5051381;28;20063;-83
2021/05/27 14:50:55;;;;;;;15.43;3.05;;;15.10;99.90;;;;;;5071969;28;20548;-82
2021/05/27 14:53:21;;;;;;;16.92;2.85;;;15.00;99.90;;;;;;5068034;28;20051;-82
2021/05/27 14:55:54;;;;;;;23.65;3.67;;;14.80;99.90;;;;;;5073388;28;20044;-82
2021/05/27 14:58:21;;;;;;;16.40;2.92;;;14.90;99.90;;;;;;5055023;28;20056;-82
2021/05/27 15:00:51;;;;;;;;;;;14.90;99.90;;;;;;5057139;28;20058;-82
2021/05/27 15:03:18;;;;;;;18.55;2.97;;;15.10;99.90;;;;;;5107736;28;19980;-82
2021/05/27 15:05:52;;;;;;;14.93;2.45;;;15.40;99.90;;;;;;5071004;28;20127;-83
2021/05/27 15:08:25;;;;;;;12.82;2.55;;;15.40;99.90;;;;;;5070256;28;20040;-83
2021/05/27 15:10:54;;;;;;;18.83;2.78;;;15.20;99.90;;;;;;5093602;28;20059;-82
2021/05/27 15:13:20;;;;;;;12.60;3.22;;;15.20;99.90;;;;;;5059403;28;20071;-81
2021/05/27 15:15:48;;;;;;;11.68;2.47;;;15.50;99.90;;;;;;5040080;28;20488;-83
2021/05/27 15:18:13;;;;;;;14.23;2.28;;;15.40;99.90;;;;;;5059072;28;20049;-83
2021/05/27 15:21:05;;;;;;;17.42;2.75;;;15.30;99.90;;;;;;5042541;28;20036;-82
2021/05/27 15:23:54;;;;;;;13.80;2.47;;;15.50;99.90;;;;;;4951715;28;20062;-83
2021/05/27 15:26:25;;;;;;;13.27;2.78;;;15.20;99.90;;;;;;4931180;28;20082;-83
2021/05/27 15:28:52;;;;;;;20.17;2.78;;;15.30;99.90;;;;;;4947462;28;20073;-82
2021/05/27 15:31:19;;;;;;;12.65;2.33;;;15.00;99.90;;;;;;4926980;28;20483;-82
2021/05/27 15:33:51;;;;;;;12.10;2.03;;;15.10;99.90;;;;;;4949998;28;20046;-83
2021/05/27 15:36:20;;;;;;;9.65;1.92;;;15.00;99.90;;;;;;4932228;28;20065;-83
2021/05/27 15:38:48;;;;;;;16.42;2.95;;;14.90;99.90;;;;;;4951575;28;20057;-82
2021/05/27 15:41:56;;;;;;;11.77;2.70;;;15.10;99.90;;;;;;4945489;28;20057;-82
2021/05/27 15:45:04;;;;;;;14.18;2.53;;;15.00;99.90;;;;;;4941255;28;20054;-82
2021/05/27 15:48:06;;;;;;;20.00;2.67;;;14.90;99.90;;;;;;4916053;29;20455;-83
2021/05/27 15:54:23;;;;;;;12.13;2.10;;;14.80;99.90;;;;;;4911548;28;20053;-83
2021/05/27 15:57:00;;;;;;;12.60;2.55;;;14.90;99.90;;;;;;5017391;28;20061;-83
2021/05/27 15:59:35;;;;;;;9.32;2.53;;;14.60;99.90;;;;;;4996806;28;20042;-82
2021/05/27 16:02:01;;;;;;;17.42;2.92;;;14.50;99.90;;;;;;5029318;28;20055;-82
2021/05/27 16:04:27;;;;;;;13.10;2.75;;;14.40;99.90;;;;;;5009060;28;20061;-82
2021/05/27 16:06:55;;;;;;;16.85;2.72;;;14.20;99.90;;;;;;5075908;28;20048;-82
2021/05/27 16:09:21;;;;;;;22.58;2.85;;;14.10;99.90;;;;;;5062408;28;20070;-82
2021/05/27 16:11:48;;;;;;;18.42;3.55;;;13.90;99.90;;;;;;5080349;28;20033;-82
2021/05/27 16:14:17;;;;;;;16.27;2.85;;;13.80;99.90;;;;;;5090795;28;20045;-82
2021/05/27 16:16:45;;;;;;;14.48;2.35;;;13.50;99.90;;;;;;5070500;28;20126;-82
2021/05/27 16:19:18;;;;;;;12.82;2.88;;;13.40;99.90;;;;;;5072185;28;20040;-81
2021/05/27 16:21:53;;;;;;;10.55;2.05;;;13.40;99.90;;;;;;5073135;28;20040;-82
2021/05/27 16:24:22;;;;;;;16.27;3.05;;;13.60;99.90;;;;;;5087857;28;20403;-83
2021/05/27 16:26:57;;;;;;;16.85;2.90;;;13.70;99.90;;;;;;5102657;28;20067;-82
2021/05/27 16:29:25;;;;;;;24.45;3.15;;;14.00;99.90;;;;;;5074042;28;20484;-82
2021/05/27 16:31:51;;;;;;;14.65;2.50;;;14.30;99.90;;;;;;5083135;28;20039;-82
2021/05/27 16:34:32;;;;;;;15.32;2.47;;;14.60;99.90;;;;;;5079616;28;20032;-82
2021/05/27 16:39:49;;;;;;;13.80;2.40;;;14.80;99.90;;;;;;5077319;28;20051;-82
2021/05/27 16:42:28;;;;;;;17.73;2.35;;;15.00;99.90;;;;;;5073317;28;20086;-82
2021/05/27 16:45:02;;;;;;;15.10;2.30;;;15.20;99.90;;;;;;5088614;28;20050;-82
2021/05/27 16:47:28;;;;;;;8.63;1.80;;;15.50;99.90;;;;;;5073409;28;20442;-81
2021/05/27 16:49:55;;;;;;;18.02;2.95;;;15.50;99.90;;;;;;5038082;28;20093;-82
2021/05/27 16:52:23;;;;;;;8.95;2.30;;;15.70;99.90;;;;;;5100212;28;20047;-83